logo
App data

Fractal: Make Blooms Not War

Push, Combo, and Chain your way through a pulsing technicolor dreamscape all the while expanding your consciousness at 130 BPM.
Store | Hub | SteamDB | Site
Developer: Cipher Prime Studios Publisher: Cipher Prime Studios
Genre: Indie, Casual
Languages: English, French, German, Italian, Japanese, Korean, Portuguese, Russian, Simplified Chinese, Spanish - Spain
Tags: Casual (38), Indie (37), Puzzle (28)
Category: Single-player
Release date: Nov 29, 2011
Price: $6.99
Score rank: 40% Userscore: 74% Old userscore: 75%
Owners: 100,000 .. 200,000
Peak concurrent players yesterday: 2
Playtime total: 00:41 (average) 00:14 (median)

Steam Spy is still in beta, so expect major bugs.

Owners data:

Access restricted.

This feature is only available to users with special access rights. Sorry.

If you want to proceed, you need to register or log in first and then back Steam Spy on Patreon. Look for Indie or Pro pledge.

Don't forget to use the same email as on Steam Spy!

Audience in 2 weeks:

Access restricted.

This feature is only available to users with special access rights. Sorry.

If you want to proceed, you need to register or log in first and then back Steam Spy on Patreon. Look for Indie or Pro pledge.

Don't forget to use the same email as on Steam Spy!

Peak daily concurrent players:

CCU data courtesy of SteamDB. Used with permission.

Hourly concurrent players:

Daily Twitch stats:

Hourly Twitch stats:

YouTube:

The views data is based on top 50 videos uploaded last week. Actual number of views might be more than the number shown.

The displayed number of videos uploaded yesterday is limited to 50, so if there were more videos uploaded, the number will still show 50.

If the game has commonly used word as its name (like "FEAR" or "Volume") its number of Youtube views might be wrong.

Games similar to this one:

# Game Release date
Price
Score rank
(Userscore / Metascore)
Owners
Players
Playtime (Median)
1 Claws & Feathers Sep 18, 2014 $6.99N/A (N/A)0 .. 20,0000%00:00 (00:00)
2 Dark Angels: Masquerade of Shadows Feb 2, 2017 $3.9997% (97%)0 .. 20,0000%00:00 (00:00)
3 Idol Magical Girl Chiru Chiru Michiru Part 1 Jul 29, 2015 $19.9997% (97%)50,000 .. 100,0000%00:00 (00:00)
4 Heroes of Hellas 3: Athens Mar 12, 2015 $2.9997% (97%)20,000 .. 50,0001.89%22:36 (07:32)
5 Weird Park Trilogy Jun 9, 2015 $19.9997% (97%)20,000 .. 50,0000%00:00 (00:00)
6 LOOP: A Tranquil Puzzle Game May 22, 2015 $4.9995% (96%)0 .. 20,0000%00:00 (00:00)
7 Eventide: Slavic Fable Jan 28, 2016 $9.9993% (95%)50,000 .. 100,0000.7%02:07 (00:42)
8 House of 1,000 Doors: Family Secrets Collector's Edition Apr 7, 2014 $9.9993% (95%)50,000 .. 100,0000.4%00:14 (00:04)
9 Chime Sep 6, 2010 $4.9990% (94%)100,000 .. 200,0000%00:00 (00:00)
10 Eye of the Owl - Bosch VR Dec 23, 2016 FreeN/A (N/A)0 .. 20,0000%00:00 (00:00)
11 Goosebumps: The Game Oct 13, 2015 $9.9987% (93%)20,000 .. 50,0000%00:00 (00:00)
12 Metamorphabet Apr 29, 2015 $4.9987% (93%)0 .. 20,0000%00:00 (00:00)
13 7 Wonders: Ancient Alien Makeover Oct 24, 2012 $9.9987% (93%)20,000 .. 50,0000%00:00 (00:00)
14 Kitty Powers' Matchmaker Apr 22, 2015 $9.9984% (92%)50,000 .. 100,0000%00:00 (00:00)
15 Witch's Pranks: Frog's Fortune Collector's Edition May 7, 2014 $6.9984% (92%)20,000 .. 50,0000%00:00 (00:00)
16 Rescue Team May 5, 2011 $4.9980% (91%)0 .. 20,0000%00:00 (00:00)
17 Dog Sled Saga Sep 22, 2016 $7.9980% (91%)0 .. 20,0000%00:00 (00:00)
18 Flight Control HD Nov 18, 2010 $4.9980% (91%)50,000 .. 100,0000%00:00 (00:00)
19 House of 1000 Doors: The Palm of Zoroaster Collector's Edition Dec 19, 2012 $9.9980% (91%)20,000 .. 50,0000%00:00 (00:00)
20 Snuggle Truck Feb 3, 2012 $4.9980% (91%)100,000 .. 200,0000.82%00:44 (00:29)
21 Zen Bound 2 Nov 16, 2010 $4.9977% (90%)200,000 .. 500,0000%00:00 (00:00)
22 12 Labours of Hercules II: The Cretan Bull Jun 2, 2015 $2.9977% (90%)200,000 .. 500,0001.25%03:38 (03:03)
23 Pool Nation Oct 18, 2013 $6.9977% (90%)200,000 .. 500,0000.27%00:47 (00:15)
24 Portal of Evil: Stolen Runes Collector's Edition May 26, 2015 $4.9977% (90%)50,000 .. 100,0000.31%06:21 (02:07)
25 Containment: The Zombie Puzzler Mar 2, 2012 $4.9977% (90%)50,000 .. 100,0000%00:00 (00:00)
26 Sacra Terra: Angelic Night Jun 15, 2011 $2.9974% (89%)20,000 .. 50,0000%00:00 (00:00)
27 Sid Meier's Colonization (Classic) Jan 1, 1994 $6.9974% (89%)20,000 .. 50,0000%00:00 (00:00)
28 Cosmic DJ Oct 30, 2014 $2.9971% (88%)50,000 .. 100,0000%00:00 (00:00)
29 QbQbQb Oct 29, 2014 $4.9971% (88%)20,000 .. 50,0000%00:00 (00:00)
30 Fine Sweeper May 25, 2015 $2.9971% (88%)20,000 .. 50,0000%00:00 (00:00)
31 Moorhuhn (Crazy Chicken) Feb 5, 2015 $0.9969% (87%)20,000 .. 50,0000%00:00 (00:00)
32 12 Labours of Hercules III: Girl Power Aug 7, 2015 $2.9969% (87%)100,000 .. 200,0000.85%04:16 (03:24)
33 Cloning Clyde Mar 15, 2011 $4.9969% (87%)20,000 .. 50,0000%00:00 (00:00)
34 Mind Snares: Alice's Journey Apr 23, 2015 $9.9969% (87%)50,000 .. 100,0000%00:00 (00:00)
35 Toto Temple Deluxe Sep 29, 2015 $9.99N/A (N/A)0 .. 20,0000%00:00 (00:00)
36 Marine Park Empire Aug 1, 2004 $1.74N/A (N/A/58%)0 .. 20,0000%00:00 (00:00)
37 Rogue System May 16, 2016 $29.9966% (86%)0 .. 20,0000%00:00 (00:00)
38 YOU DON'T KNOW JACK Vol. 3 Oct 31, 1997 $2.99N/A (N/A)0 .. 20,0000%00:00 (00:00)
39 Tales of the Orient: The Rising Sun Feb 27, 2015 $9.9961% (84%)50,000 .. 100,0000%00:00 (00:00)
40 Little Racers STREET Feb 6, 2014 $5.9961% (84%/62%)100,000 .. 200,0000%00:00 (00:00)
41 Mountain Crime: Requital Dec 24, 2011 $2.9961% (84%)50,000 .. 100,0000.52%00:15 (00:05)
42 Karate Master 2 Knock Down Blow Mar 20, 2015 $9.9961% (84%)0 .. 20,00012.5%01:52 (00:59)
43 Tomato Jones Jul 11, 2016 $1.9958% (83%)0 .. 20,0000%00:00 (00:00)
44 Critical Mass Jun 20, 2011 $1.9958% (83%/81%)100,000 .. 200,0000%00:00 (00:00)
45 Joe Danger Jun 24, 2013 $14.9958% (83%)20,000 .. 50,0000%00:00 (00:00)
46 Left in the Dark: No One on Board Aug 20, 2013 $9.9958% (83%)50,000 .. 100,0000%00:00 (00:00)
47 Domestic Dog Aug 7, 2014 $2.9956% (82%)20,000 .. 50,0000%00:00 (00:00)
48 Rooms: The Main Building Jul 11, 2014 $9.9956% (82%)50,000 .. 100,0000.62%02:31 (00:50)
49 Lexica Jul 4, 2014 $4.9954% (81%)100,000 .. 200,0000%00:00 (00:00)
50 Intergalactic Bubbles May 29, 2015 $1.9954% (81%)200,000 .. 500,0000.19%09:05 (03:01)
51 Putt-Putt Joins the Circus Dec 31, 2000 $2.79N/A (N/A)20,000 .. 50,0000%00:00 (00:00)
52 Governor of Poker 2 Oct 11, 2010 $7.9952% (80%)20,000 .. 50,0002.86%01:33 (00:31)
53 Star Trek: Starfleet Academy May 8, 2015 $9.9952% (80%)0 .. 20,0000%00:00 (00:00)
54 Evochron Legacy Jan 18, 2016 $24.9952% (80%)0 .. 20,0000%00:00 (00:00)
55 Crazy Machines Elements Dec 6, 2011 $9.99N/A (N/A)20,000 .. 50,0000%00:00 (00:00)
56 Bridge Constructor Medieval Sep 15, 2014 $9.9952% (80%)50,000 .. 100,0000%00:00 (00:00)
57 Dead Hungry Diner May 16, 2012 $3.9952% (80%)20,000 .. 50,0000%00:00 (00:00)
58 Legend of Merchant Dec 16, 2016 $1.9952% (80%)20,000 .. 50,0000%00:00 (00:00)
59 Pickers Feb 22, 2012 $9.9949% (79%)50,000 .. 100,0000%00:00 (00:00)
60 YOU DON'T KNOW JACK Vol. 1 XL Sep 12, 1995 $2.9949% (79%)0 .. 20,0000%00:00 (00:00)
61 Doodle God Sep 24, 2015 $14.9948% (78%)50,000 .. 100,0000%00:00 (00:00)
62 Lucid Jul 19, 2011 $4.9948% (78%)50,000 .. 100,0000%00:00 (00:00)
63 Evochron Mercenary Jan 16, 2012 $19.9948% (78%/70%)50,000 .. 100,0000%00:00 (00:00)
64 Cosmic Osmo and the Worlds Beyond the Mackerel $5.9948% (78%)0 .. 20,0000%00:00 (00:00)
65 Vector 36 Jan 25, 2017 $15.9948% (78%)0 .. 20,0000%00:00 (00:00)
66 The Happy Hereafter Oct 2, 2013 $3.9948% (78%)0 .. 20,0000%00:00 (00:00)
67 Dracula's Legacy Oct 22, 2015 $2.9946% (77%)100,000 .. 200,0000.66%03:24 (02:15)
68 Spelunx and the Caves of Mr. Seudo $5.99N/A (N/A)0 .. 20,0000%00:00 (00:00)
69 Awe Oct 9, 2015 $0.9946% (77%)20,000 .. 50,0000%00:00 (00:00)
70 Inbetween Land Feb 19, 2015 $6.9944% (76%)20,000 .. 50,0000%00:00 (00:00)
71 Luna's Wandering Stars May 15, 2015 $9.9944% (76%)50,000 .. 100,0000%00:00 (00:00)
72 Season Match Nov 28, 2007 $3.9944% (76%)0 .. 20,0000%00:00 (00:00)
73 Death Tractor Oct 29, 2015 $0.99N/A (N/A)0 .. 20,0000%00:00 (00:00)
74 HellGunner May 11, 2017 $0.9942% (75%)100,000 .. 200,0000%00:00 (00:00)
75 Wildlife Park 2 - Farm World Nov 19, 2010 $3.99N/A (N/A)20,000 .. 50,0000%00:00 (00:00)
76 Questerium: Sinister Trinity HD Collector's Edition Jan 15, 2015 $6.9942% (75%)0 .. 20,0000%00:00 (00:00)
77 Season Match 3 - Curse of the Witch Crow Dec 23, 2010 $4.9942% (75%)0 .. 20,0000%00:00 (00:00)
78 Formula Fusion May 31, 2017 $19.9940% (74%/58%)0 .. 20,0000%00:00 (00:00)
79 The Secret Order 4: Beyond Time Sep 22, 2016 $9.9938% (73%)20,000 .. 50,0000%00:00 (00:00)
80 The Manhole: Masterpiece Edition $5.99N/A (N/A)0 .. 20,0000%00:00 (00:00)
81 Brave Furries Mar 14, 2017 $0.99N/A (N/A)20,000 .. 50,0000%00:00 (00:00)
82 Wildlife Park 2 - Marine World Aug 31, 2007 $3.99N/A (N/A)20,000 .. 50,0000%00:00 (00:00)
83 The Spatials Mar 30, 2015 $9.9937% (72%)20,000 .. 50,0000%00:00 (00:00)
84 X: Tension Jun 1, 2000 $4.9937% (72%)20,000 .. 50,0000%00:00 (00:00)
85 ARMA: Gold Edition Jul 13, 2011 $9.9937% (72%)500,000 .. 1,000,0000.12%00:19 (00:06)
86 Funfair Aug 20, 2016 FreeN/A (N/A)0 .. 20,0000%00:00 (00:00)
87 Coffin Dodgers Jul 8, 2015 $10.9935% (71%)50,000 .. 100,0000.58%02:29 (00:49)
88 Rogue State Oct 16, 2015 $12.9935% (71%/66%)20,000 .. 50,0000%00:00 (00:00)
89 Parkan 2 May 11, 2007 $3.9933% (70%)50,000 .. 100,0000%00:00 (00:00)
90 Colours of Magic: Aqua Teeter Apr 25, 2016 $0.9933% (70%)0 .. 20,0000%00:00 (00:00)
91 Cahors Sunset Jan 12, 2015 $1.9931% (69%)0 .. 20,0000%00:00 (00:00)
92 Tea Party Simulator 2015 Apr 23, 2015 $9.9931% (69%)100,000 .. 200,0000%00:00 (00:00)
93 The Oil Blue: Steam Legacy Edition Jun 22, 2010 $4.9930% (68%)20,000 .. 50,0000%00:00 (00:00)
94 Dreamscapes: Nightmare's Heir - Premium Edition Mar 11, 2015 $6.9930% (68%)20,000 .. 50,0000%00:00 (00:00)
95 X-Plane 10 Global - 64 Bit Jul 14, 2014 N/A30% (68%)50,000 .. 100,0000%00:00 (00:00)
96 The Sandbox Evolution - Craft a 2D Pixel Universe! Nov 15, 2016 Free28% (67%)100,000 .. 200,0001.98%02:50 (01:32)
97 Fairy Tale Mysteries: The Puppet Thief Jan 7, 2016 $9.9927% (66%)20,000 .. 50,0000%00:00 (00:00)
98 The Guild II Oct 12, 2006 $9.9927% (66%/61%)500,000 .. 1,000,0000.17%04:28 (01:29)
99 Robot Squad Simulator 2017 Oct 20, 2016 $14.9923% (63%)0 .. 20,0000%00:00 (00:00)
100 The Corporate Machine Jul 14, 2001 $9.9923% (63%/80%)20,000 .. 50,0000%00:00 (00:00)
101 Demon Hunter: Chronicles from Beyond Dec 4, 2014 $9.9923% (63%)50,000 .. 100,0000%00:00 (00:00)
102 The Cooking Game Oct 21, 2016 $5.9922% (62%)20,000 .. 50,0000%00:00 (00:00)
103 Astronaut Simulator Apr 2, 2015 $1.9921% (61%)0 .. 20,0000%00:00 (00:00)
104 School Bus Fun Jul 3, 2014 $5.9921% (61%)20,000 .. 50,0000%00:00 (00:00)
105 Al Emmo's Postcards from Anozira Aug 2, 2010 $4.99N/A (N/A)0 .. 20,0000%00:00 (00:00)
106 Night Mysteries: The Amphora Prisoner Feb 26, 2015 $1.9920% (60%)50,000 .. 100,0000%00:00 (00:00)
107 Sparkle 3 Genesis Apr 24, 2015 $4.9920% (60%)100,000 .. 200,0000.4%04:39 (02:00)
108 Evil Pumpkin: The Lost Halloween Jul 11, 2014 $9.9920% (60%)0 .. 20,0000%00:00 (00:00)
109 Iron Front: Digital War Edition May 25, 2012 $14.9918% (59%/55%)50,000 .. 100,0000%00:00 (00:00)
110 Puzzle Kingdoms Apr 16, 2009 $14.9918% (59%)100,000 .. 200,0000%00:00 (00:00)
111 On The Road Mar 30, 2017 $17.9917% (58%)0 .. 20,0007.69%00:06 (00:02)
112 Chicken Shoot Gold Nov 1, 2003 $6.9917% (58%)100,000 .. 200,0001.09%04:10 (04:40)
113 President for a Day - Floodings Aug 12, 2015 $2.99N/A (N/A)20,000 .. 50,0000%00:00 (00:00)
114 Bus Simulator 16 Mar 2, 2016 $17.9917% (58%)100,000 .. 200,0006.93%01:34 (02:57)
115 Worms Blast Mar 30, 2002 $7.9916% (57%/73%)100,000 .. 200,0000%00:00 (00:00)
116 Space Legends: At the Edge of the Universe Jul 25, 2014 $9.9916% (57%)20,000 .. 50,0000%00:00 (00:00)
117 FLASHOUT 2 Jun 6, 2014 $1.2416% (57%)20,000 .. 50,0001.11%00:01 (00:00)
118 The Clockwork Man Aug 10, 2011 $6.9916% (57%)0 .. 20,0000%00:00 (00:00)
119 Unclaimed World Oct 4, 2016 $18.9916% (56%)0 .. 20,0000%00:00 (00:00)
120 Hidden Object Bundle 5 in 1 Feb 27, 2015 $9.9915% (55%)20,000 .. 50,0000%00:00 (00:00)
121 Peak Angle: Drift Online Nov 24, 2016 $7.9915% (55%)20,000 .. 50,0006.9%00:08 (00:03)
122 Intelligent Design: An Evolutionary Sandbox May 12, 2017 $6.9913% (53%)50,000 .. 100,0000%00:00 (00:00)
123 Kumoon : Ballistic Physics Puzzle Nov 10, 2015 $2.9913% (53%)0 .. 20,0000%00:00 (00:00)
124 Democracy 2 Dec 1, 2007 $19.9913% (52%)50,000 .. 100,0000%00:00 (00:00)
125 Air Guardians Jan 26, 2015 $0.9913% (52%)20,000 .. 50,0000%00:00 (00:00)
126 Inside The Gear Nov 21, 2014 $1.9913% (52%)50,000 .. 100,0000%00:00 (00:00)
127 Trench Run Apr 7, 2016 $3.9912% (51%)0 .. 20,0000%00:00 (00:00)
128 Project:surviving May 1, 2017 $0.49N/A (N/A)50,000 .. 100,0000%00:00 (00:00)
129 The Tomorrow War May 4, 2009 $2.9911% (50%)20,000 .. 50,0000%00:00 (00:00)
130 Colossal Kaiju Combat: Kaijuland Battles Aug 11, 2014 $4.9911% (50%)0 .. 20,0000%00:00 (00:00)
131 Mars Industries Oct 24, 2016 $1.9911% (50%)100,000 .. 200,0000%00:00 (00:00)
132 Guild Commander Jan 23, 2015 $4.9911% (49%)0 .. 20,0000%00:00 (00:00)
133 Time Mysteries: Inheritance - Remastered Oct 6, 2014 $9.9910% (47%)50,000 .. 100,0000%00:00 (00:00)
134 Space Station Alpha Feb 27, 2015 $5.99N/A (N/A)20,000 .. 50,0000%00:00 (00:00)
135 Idol Hands Feb 18, 2015 $4.998% (44%)20,000 .. 50,0000%00:00 (00:00)
136 Earth Space Colonies Jul 1, 2016 $9.997% (41%)0 .. 20,0000%00:00 (00:00)
137 Turba Jul 2010 $4.997% (41%/76%)50,000 .. 100,0000%00:00 (00:00)
138 WarBirds - World War II Combat Aviation - 2018 Apr 21, 2015 $14.99N/A (N/A)0 .. 20,0000%00:00 (00:00)
139 Organ Biker Jun 1, 2015 $0.996% (39%)200,000 .. 500,0000%00:00 (00:00)
140 3SwitcheD Mar 29, 2012 $9.995% (35%)200,000 .. 500,0000.61%02:15 (03:12)
141 Wild Season Dec 7, 2015 $16.994% (31%)0 .. 20,0000%00:00 (00:00)
142 Spacebase DF-9 Oct 27, 2014 $9.992% (19%/49%)100,000 .. 200,0000.45%00:03 (00:01)
143 Fantasy Kingdom Simulator Jun 13, 2016 $0.992% (17%)100,000 .. 200,0000%00:00 (00:00)
144 Patterns N/A1% (14%)0 .. 20,0000%00:00 (00:00)

Tags over time:

Access restricted.

This feature is only available to users with special access rights. Sorry.

If you want to proceed, you need to register or log in first and then back Steam Spy on Patreon. Look for Indie or Pro pledge.

Don't forget to use the same email as on Steam Spy!

Owners of this game also own:

Access restricted.

This feature is only available to users with special access rights. Sorry.

If you want to proceed, you need to register or log in first and then back Steam Spy on Patreon. Look for Indie or Pro pledge.

Don't forget to use the same email as on Steam Spy!

Playtime distribution:

Access restricted.

This feature is only available to users with special access rights. Sorry.

If you want to proceed, you need to register or log in first and then back Steam Spy on Patreon. Look for Indie or Pro pledge.

Don't forget to use the same email as on Steam Spy!

Playtime (2 weeks):

Access restricted.

This feature is only available to users with special access rights. Sorry.

If you want to proceed, you need to register or log in first and then back Steam Spy on Patreon. Look for Indie or Pro pledge.

Don't forget to use the same email as on Steam Spy!

User reviews:

Login required.

Please register or log in to see this information.